Time;durP1;ratioP1;P1;durP2;ratioP2;P2;SDS_P1;SDS_P2;PMS_P1;PMS_P2;Temp;Humidity;BMP_temperature;BMP_pressure;BME280_temperature;BME280_humidity;BME280_pressure;Samples;Min_cycle;Max_cycle;Signal;HPM_P1;HPM_P2
2023/11/03 00:02:09;;;;;;;4.82;0.80;;;13.60;99.90;;;;;;2603003;54;20026;31
2023/11/03 00:04:44;;;;;;;2.67;0.80;;;13.60;99.90;;;;;;2621891;46;20835;31
2023/11/03 00:07:19;;;;;;;4.10;1.20;;;13.60;99.90;;;;;;2603078;54;20843;31
2023/11/03 00:09:55;;;;;;;2.13;0.77;;;13.60;99.90;;;;;;2621260;46;20849;31
2023/11/03 00:12:30;;;;;;;2.08;0.73;;;13.60;99.90;;;;;;2603286;54;20057;31
2023/11/03 00:15:10;;;;;;;1.55;0.70;;;13.70;99.90;;;;;;2621445;46;20027;31
2023/11/03 00:17:46;;;;;;;1.95;0.60;;;13.70;99.90;;;;;;2603023;54;20693;31
2023/11/03 00:20:23;;;;;;;2.70;0.90;;;13.70;99.90;;;;;;2621907;46;21009;31
2023/11/03 00:22:59;;;;;;;3.45;0.88;;;13.70;99.90;;;;;;2603009;54;20916;31
2023/11/03 00:25:35;;;;;;;0.80;0.47;;;13.70;99.90;;;;;;2603142;54;20145;31
2023/11/03 00:28:10;;;;;;;1.65;0.60;;;13.70;99.90;;;;;;2603103;54;20063;31
2023/11/03 00:30:48;;;;;;;2.00;0.85;;;13.80;99.90;;;;;;2603166;54;20034;31
2023/11/03 00:33:24;;;;;;;2.28;0.63;;;13.70;99.90;;;;;;2715206;39;20046;31
2023/11/03 00:35:58;;;;;;;;;;;13.70;99.90;;;;;;2621690;46;20647;31
2023/11/03 00:38:33;;;;;;;5.50;0.85;;;13.70;99.90;;;;;;2621066;46;20835;31
2023/11/03 00:41:08;;;;;;;3.10;0.90;;;13.80;99.90;;;;;;2603046;54;20085;31
2023/11/03 00:43:45;;;;;;;2.53;1.02;;;13.80;99.90;;;;;;2621653;46;20030;31
2023/11/03 00:46:22;;;;;;;3.90;0.80;;;13.70;99.90;;;;;;2603053;54;20030;31
2023/11/03 00:48:58;;;;;;;1.20;0.60;;;13.80;99.90;;;;;;2603255;54;20141;31
2023/11/03 00:51:33;;;;;;;4.93;1.02;;;13.80;99.90;;;;;;2602937;54;20176;31
2023/11/03 00:54:09;;;;;;;6.65;0.60;;;13.80;99.90;;;;;;2602914;54;20881;31
2023/11/03 00:56:45;;;;;;;2.35;0.65;;;13.80;99.90;;;;;;2701634;39;20462;31
2023/11/03 00:59:19;;;;;;;3.03;0.70;;;13.80;99.90;;;;;;2621882;47;20877;31
2023/11/03 01:01:57;;;;;;;5.97;0.70;;;13.90;99.90;;;;;;2604163;54;20045;31
2023/11/03 01:04:32;;;;;;;2.33;0.70;;;13.90;99.90;;;;;;2603890;54;20076;31
2023/11/03 01:07:08;;;;;;;2.50;0.40;;;14.00;99.90;;;;;;2622077;46;20033;31
2023/11/03 01:09:42;;;;;;;4.73;0.83;;;14.00;99.90;;;;;;2603705;54;20851;31
2023/11/03 01:12:18;;;;;;;1.90;0.70;;;14.00;99.90;;;;;;2603657;54;20030;31
2023/11/03 01:14:55;;;;;;;2.60;0.60;;;14.00;99.90;;;;;;2603899;54;20782;31
2023/11/03 01:17:33;;;;;;;1.70;0.80;;;14.00;99.90;;;;;;2603739;54;20252;31
2023/11/03 01:20:12;;;;;;;1.73;0.70;;;14.10;99.90;;;;;;2603787;54;20285;31
2023/11/03 01:22:48;;;;;;;1.75;0.50;;;14.10;99.90;;;;;;2603992;54;20038;31
2023/11/03 01:25:22;;;;;;;1.80;0.68;;;14.10;99.90;;;;;;2603788;54;20033;31
2023/11/03 01:27:57;;;;;;;4.22;0.60;;;14.10;99.90;;;;;;2622081;46;20026;31
2023/11/03 01:30:32;;;;;;;0.90;0.65;;;14.10;99.90;;;;;;2603576;54;20030;31
2023/11/03 01:33:10;;;;;;;1.45;0.60;;;14.10;99.90;;;;;;2603478;54;20107;31
2023/11/03 01:35:45;;;;;;;1.13;0.50;;;14.10;99.90;;;;;;2603893;54;20030;31
2023/11/03 01:38:20;;;;;;;3.00;0.60;;;14.00;99.90;;;;;;2621555;46;20019;31
2023/11/03 01:40:56;;;;;;;3.80;0.60;;;14.00;99.90;;;;;;2622251;46;20089;31
2023/11/03 01:43:30;;;;;;;1.38;0.77;;;14.00;99.90;;;;;;2603959;54;20045;31
2023/11/03 01:46:06;;;;;;;2.30;0.50;;;13.90;99.90;;;;;;2603583;54;20081;31
2023/11/03 01:48:43;;;;;;;;;;;13.90;99.90;;;;;;2604133;54;20005;31
2023/11/03 01:51:17;;;;;;;;;;;13.80;99.90;;;;;;2603537;54;20815;31
2023/11/03 01:53:52;;;;;;;2.20;0.60;;;13.70;99.90;;;;;;2603553;54;20000;31
2023/11/03 01:56:27;;;;;;;1.27;0.60;;;13.60;99.90;;;;;;2603505;54;20573;31
2023/11/03 01:59:05;;;;;;;2.97;1.17;;;13.50;99.90;;;;;;2603399;54;20799;31
2023/11/03 02:01:41;;;;;;;1.60;0.73;;;13.50;99.90;;;;;;2603800;54;20037;31
2023/11/03 02:04:19;;;;;;;4.53;0.63;;;13.40;99.90;;;;;;2603780;54;20796;31
2023/11/03 02:06:53;;;;;;;2.22;0.88;;;13.40;99.90;;;;;;2603762;54;20592;31
2023/11/03 02:09:28;;;;;;;1.45;0.60;;;13.30;99.90;;;;;;2603696;54;20081;31
2023/11/03 02:12:03;;;;;;;4.77;1.07;;;13.30;99.90;;;;;;2603253;54;20920;31
2023/11/03 02:14:38;;;;;;;1.88;0.60;;;13.30;99.90;;;;;;2603371;54;20120;31
2023/11/03 02:17:13;;;;;;;2.80;1.03;;;13.30;99.90;;;;;;2621703;46;20046;31
2023/11/03 02:19:51;;;;;;;0.73;0.47;;;13.20;99.90;;;;;;2621802;46;20855;31
2023/11/03 02:22:26;;;;;;;2.50;0.85;;;13.20;99.90;;;;;;2603373;54;20119;31
2023/11/03 02:25:04;;;;;;;3.17;0.83;;;13.20;99.90;;;;;;2603731;54;20027;31
2023/11/03 02:27:38;;;;;;;2.58;0.60;;;13.20;99.90;;;;;;2603621;54;20969;31
2023/11/03 02:30:14;;;;;;;1.45;0.70;;;13.10;99.90;;;;;;2603439;54;20027;31
2023/11/03 02:32:49;;;;;;;1.98;0.80;;;13.10;99.90;;;;;;2603649;54;20120;31
2023/11/03 02:35:24;;;;;;;5.50;0.80;;;13.00;99.90;;;;;;2603531;54;20997;31
2023/11/03 02:38:02;;;;;;;3.55;0.95;;;13.00;99.90;;;;;;2621899;46;20298;31
2023/11/03 02:40:40;;;;;;;3.45;1.00;;;13.00;99.90;;;;;;2603446;54;20033;31
2023/11/03 02:43:14;;;;;;;3.42;0.80;;;12.90;99.90;;;;;;2603250;54;20836;31
2023/11/03 02:45:51;;;;;;;2.40;1.10;;;13.00;99.90;;;;;;2603500;54;20049;31
2023/11/03 02:48:27;;;;;;;5.18;1.83;;;12.90;99.90;;;;;;2702373;39;20519;31
2023/11/03 02:51:03;;;;;;;2.25;0.82;;;12.90;99.90;;;;;;2603546;54;20906;31
2023/11/03 02:53:37;;;;;;;2.55;1.00;;;12.90;99.90;;;;;;2621821;46;20085;31
2023/11/03 02:56:14;;;;;;;2.00;0.97;;;12.80;99.90;;;;;;2603259;54;20895;31
2023/11/03 02:58:48;;;;;;;2.40;0.98;;;12.80;99.90;;;;;;2701982;39;20560;31
2023/11/03 03:01:29;;;;;;;4.68;1.08;;;12.80;99.90;;;;;;2622121;46;19989;31
2023/11/03 03:04:04;;;;;;;2.55;1.00;;;12.80;99.90;;;;;;2603498;54;20037;31
2023/11/03 03:06:42;;;;;;;3.53;1.13;;;12.70;99.90;;;;;;2720643;39;20461;31
2023/11/03 03:09:16;;;;;;;2.15;1.10;;;12.70;99.90;;;;;;2622126;46;20660;31
2023/11/03 03:11:53;;;;;;;3.88;1.65;;;12.70;99.90;;;;;;2603297;54;20080;31
2023/11/03 03:14:28;;;;;;;2.10;1.00;;;12.70;99.90;;;;;;2603461;54;20808;31
2023/11/03 03:17:02;;;;;;;5.15;1.40;;;12.70;99.90;;;;;;2622293;46;20238;31
2023/11/03 03:19:37;;;;;;;3.00;0.80;;;12.70;99.90;;;;;;2603444;54;20039;31
2023/11/03 03:22:12;;;;;;;2.78;1.30;;;12.70;99.90;;;;;;2603657;54;20022;31
2023/11/03 03:24:46;;;;;;;2.20;0.95;;;12.60;99.90;;;;;;2603403;54;20030;31
2023/11/03 03:27:23;;;;;;;3.10;1.70;;;12.60;99.90;;;;;;2603174;54;20026;31
2023/11/03 03:29:58;;;;;;;2.90;1.10;;;12.60;99.90;;;;;;2603340;54;20133;31
2023/11/03 03:32:32;;;;;;;3.00;1.02;;;12.60;99.90;;;;;;2603412;54;21434;31
2023/11/03 03:35:08;;;;;;;3.85;1.17;;;12.60;99.90;;;;;;2603138;54;20070;31
2023/11/03 03:37:44;;;;;;;1.60;0.90;;;12.70;99.90;;;;;;2603429;54;20053;31
2023/11/03 03:40:18;;;;;;;1.30;0.70;;;12.70;99.90;;;;;;2603303;54;20159;31
2023/11/03 03:42:55;;;;;;;1.95;1.20;;;12.70;99.90;;;;;;2622216;46;21379;31
2023/11/03 03:45:31;;;;;;;1.95;1.02;;;12.70;99.90;;;;;;2603545;54;20035;31
2023/11/03 03:48:05;;;;;;;4.37;1.43;;;12.70;99.90;;;;;;2621692;46;20038;31
2023/11/03 03:50:40;;;;;;;1.75;1.13;;;12.70;99.90;;;;;;2603316;54;20023;31
2023/11/03 03:53:15;;;;;;;3.58;1.50;;;12.70;99.90;;;;;;2603311;54;19996;31
2023/11/03 03:55:50;;;;;;;4.40;1.53;;;12.70;99.90;;;;;;2603516;54;20037;31
2023/11/03 03:58:28;;;;;;;1.70;1.00;;;12.70;99.90;;;;;;2603430;54;20246;31
2023/11/03 04:01:02;;;;;;;2.03;1.27;;;12.70;99.90;;;;;;2603025;54;20026;31
2023/11/03 04:03:37;;;;;;;2.80;1.20;;;12.70;99.90;;;;;;2603124;54;20890;31
2023/11/03 04:06:13;;;;;;;3.95;1.50;;;12.70;99.90;;;;;;2603364;54;20819;31
2023/11/03 04:08:47;;;;;;;2.22;1.17;;;12.80;99.90;;;;;;2603225;54;20873;31
2023/11/03 04:11:22;;;;;;;2.47;0.93;;;12.70;99.90;;;;;;2603194;54;20159;31
2023/11/03 04:14:00;;;;;;;3.23;0.90;;;12.80;99.90;;;;;;2621400;46;20026;31
2023/11/03 04:16:37;;;;;;;2.30;1.50;;;12.80;99.90;;;;;;2603209;54;21039;31
2023/11/03 04:19:12;;;;;;;8.70;1.33;;;12.80;99.90;;;;;;2603314;54;20846;31
2023/11/03 04:21:47;;;;;;;4.00;1.80;;;12.80;99.90;;;;;;2621613;46;20031;31
2023/11/03 04:24:22;;;;;;;3.33;1.10;;;12.80;99.90;;;;;;2603201;54;20906;31
2023/11/03 04:26:56;;;;;;;5.30;1.60;;;12.90;99.90;;;;;;2602335;54;20921;31
2023/11/03 04:29:33;;;;;;;3.30;1.45;;;12.90;99.90;;;;;;2603366;54;20116;31
2023/11/03 04:32:09;;;;;;;4.18;1.60;;;12.90;99.90;;;;;;2621282;46;25104;31
2023/11/03 04:34:43;;;;;;;;;;;12.90;99.90;;;;;;2603141;54;20831;31
2023/11/03 04:37:18;;;;;;;2.30;1.10;;;12.80;99.90;;;;;;2602966;54;20768;31
2023/11/03 04:39:52;;;;;;;3.75;1.10;;;12.70;99.90;;;;;;2603180;54;20116;31
2023/11/03 04:42:27;;;;;;;1.65;0.90;;;12.60;99.90;;;;;;2603243;54;20143;31
2023/11/03 04:45:04;;;;;;;4.35;1.13;;;12.50;99.90;;;;;;2603227;54;20116;31
2023/11/03 04:47:39;;;;;;;1.65;0.95;;;12.40;99.90;;;;;;2603198;54;20052;31
2023/11/03 04:50:14;;;;;;;4.80;1.50;;;12.40;99.90;;;;;;2603316;54;20120;31
2023/11/03 04:52:49;;;;;;;2.55;1.10;;;12.30;99.90;;;;;;2621274;47;20034;31
2023/11/03 04:55:25;;;;;;;3.05;1.10;;;12.30;99.90;;;;;;2621422;47;20274;31
2023/11/03 04:57:59;;;;;;;3.10;1.20;;;12.20;99.90;;;;;;2603098;54;20116;31
2023/11/03 05:00:38;;;;;;;2.20;1.00;;;12.20;99.90;;;;;;2602930;54;20042;31
2023/11/03 05:03:13;;;;;;;2.08;1.30;;;12.20;99.90;;;;;;2621313;47;20112;31
2023/11/03 05:05:48;;;;;;;4.28;0.93;;;12.20;99.90;;;;;;2621691;47;20870;31
2023/11/03 05:08:23;;;;;;;3.17;1.30;;;12.20;99.90;;;;;;2603120;54;20876;31
2023/11/03 05:10:58;;;;;;;2.40;1.10;;;12.10;99.90;;;;;;2602882;54;20951;31
2023/11/03 05:13:33;;;;;;;2.10;1.30;;;12.10;99.90;;;;;;2603030;54;20042;31
2023/11/03 05:16:11;;;;;;;2.40;1.25;;;12.10;99.90;;;;;;2621229;47;25072;31
2023/11/03 05:18:46;;;;;;;3.22;1.02;;;12.10;99.90;;;;;;2602802;54;20294;31
2023/11/03 05:21:22;;;;;;;1.58;0.90;;;12.10;99.90;;;;;;2603093;54;20034;31
2023/11/03 05:23:58;;;;;;;2.47;1.10;;;12.00;99.90;;;;;;2602763;54;20038;31
2023/11/03 05:26:34;;;;;;;1.50;1.10;;;12.00;99.90;;;;;;2602800;54;20968;31
2023/11/03 05:29:16;;;;;;;9.65;2.45;;;12.00;99.90;;;;;;2602945;54;20026;31
2023/11/03 05:32:03;;;;;;;2.25;1.02;;;12.00;99.90;;;;;;2621432;47;20061;31
2023/11/03 05:34:37;;;;;;;3.08;1.02;;;12.00;99.90;;;;;;2602837;54;20907;31
2023/11/03 05:37:14;;;;;;;2.95;1.10;;;12.00;99.90;;;;;;2602716;54;20608;31
2023/11/03 05:39:49;;;;;;;;;;;12.00;99.90;;;;;;2603092;54;20104;31
2023/11/03 05:42:27;;;;;;;2.30;1.20;;;11.90;99.90;;;;;;2602631;54;19935;31
2023/11/03 05:45:03;;;;;;;1.75;1.20;;;11.90;99.90;;;;;;2602621;54;20844;31
2023/11/03 05:47:41;;;;;;;2.40;1.35;;;11.90;99.90;;;;;;2603324;54;21775;31
2023/11/03 05:52:50;;;;;;;6.78;2.40;;;11.90;99.90;;;;;;2603769;54;20251;31
2023/11/03 05:55:26;;;;;;;7.13;3.00;;;11.80;99.90;;;;;;2603671;54;20089;31
2023/11/03 05:58:00;;;;;;;7.28;3.38;;;11.80;99.90;;;;;;2621842;46;21105;31
2023/11/03 06:00:39;;;;;;;8.45;3.50;;;11.80;99.90;;;;;;2603775;54;20042;31
2023/11/03 06:03:17;;;;;;;4.47;2.78;;;11.80;99.90;;;;;;2603591;54;20164;31
2023/11/03 06:05:53;;;;;;;7.13;3.22;;;11.90;99.90;;;;;;2603497;54;20105;31
2023/11/03 06:08:28;;;;;;;4.40;3.20;;;11.90;99.90;;;;;;2603456;54;20838;31
2023/11/03 06:11:03;;;;;;;6.53;3.05;;;11.90;99.90;;;;;;2603738;54;20034;31
2023/11/03 06:13:40;;;;;;;6.75;2.50;;;11.90;99.90;;;;;;2603538;54;20046;31
2023/11/03 06:16:14;;;;;;;5.40;2.60;;;11.90;99.90;;;;;;2622111;46;20034;31
2023/11/03 06:18:54;;;;;;;3.30;2.07;;;12.00;99.90;;;;;;2603474;54;20109;31
2023/11/03 06:21:29;;;;;;;5.95;2.30;;;11.90;99.90;;;;;;2720475;39;20643;31
2023/11/03 06:24:07;;;;;;;;;;;11.90;99.90;;;;;;2604035;54;20089;31
2023/11/03 06:26:43;;;;;;;3.60;1.70;;;11.90;99.90;;;;;;2702085;39;20405;31
2023/11/03 06:29:18;;;;;;;5.90;2.50;;;11.90;99.90;;;;;;2603588;54;20250;31
2023/11/03 06:31:54;;;;;;;2.83;1.70;;;11.90;99.90;;;;;;2603590;54;20839;31
2023/11/03 06:34:35;;;;;;;3.95;2.17;;;11.90;99.90;;;;;;2603555;54;20924;31
2023/11/03 06:37:11;;;;;;;4.25;2.10;;;11.90;99.90;;;;;;2603569;54;20843;31
2023/11/03 06:39:50;;;;;;;7.10;3.28;;;11.90;99.90;;;;;;2603548;54;20042;31
2023/11/03 06:42:24;;;;;;;7.70;3.85;;;11.90;99.90;;;;;;2702313;39;21038;31
2023/11/03 06:45:03;;;;;;;18.30;6.57;;;11.90;99.90;;;;;;2603876;54;20026;31
2023/11/03 06:47:43;;;;;;;16.55;7.35;;;12.00;99.90;;;;;;2701644;39;21620;31
2023/11/03 06:50:22;;;;;;;15.50;8.10;;;12.00;99.90;;;;;;2603741;54;20030;31
2023/11/03 06:52:58;;;;;;;17.83;8.55;;;12.00;99.90;;;;;;2603170;54;20917;31
2023/11/03 06:55:34;;;;;;;16.45;7.70;;;12.00;99.90;;;;;;2603351;54;20114;31
2023/11/03 06:58:10;;;;;;;19.75;7.85;;;11.90;99.90;;;;;;2603342;54;20037;31
2023/11/03 07:00:46;;;;;;;15.00;6.88;;;11.90;99.90;;;;;;2622112;46;20053;31
2023/11/03 07:03:23;;;;;;;14.65;6.85;;;11.90;99.90;;;;;;2603403;54;20112;31
2023/11/03 07:06:00;;;;;;;11.45;5.32;;;11.90;99.90;;;;;;2621937;46;20116;31
2023/11/03 07:08:36;;;;;;;7.28;3.38;;;11.90;99.90;;;;;;2603592;54;20023;31
2023/11/03 07:11:12;;;;;;;7.18;3.78;;;11.90;99.90;;;;;;2603388;54;20832;31
2023/11/03 07:13:48;;;;;;;5.53;2.97;;;11.90;99.90;;;;;;2603659;54;20907;31
2023/11/03 07:16:23;;;;;;;6.40;4.10;;;11.90;99.90;;;;;;2603338;54;20936;31
2023/11/03 07:18:58;;;;;;;5.10;2.92;;;11.90;99.90;;;;;;2603437;54;20874;31
2023/11/03 07:21:36;;;;;;;4.25;2.60;;;;;;;;;;2603464;54;20856;31
2023/11/03 07:24:13;;;;;;;6.32;3.58;;;12.00;99.90;;;;;;2605572;46;20046;31
2023/11/03 07:26:50;;;;;;;5.50;3.55;;;12.00;99.90;;;;;;2603513;54;20901;31
2023/11/03 07:29:24;;;;;;;6.10;2.87;;;11.90;99.90;;;;;;2603737;54;20026;31
2023/11/03 07:32:00;;;;;;;4.07;2.63;;;12.00;99.90;;;;;;2621986;46;21340;31
2023/11/03 07:34:34;;;;;;;4.60;2.40;;;12.00;99.90;;;;;;2617178;46;20243;31
2023/11/03 07:37:13;;;;;;;5.80;3.05;;;12.00;99.90;;;;;;2603275;54;20129;31
2023/11/03 07:39:49;;;;;;;4.83;2.60;;;12.00;99.90;;;;;;2603484;54;20030;31
2023/11/03 07:42:23;;;;;;;;;;;12.00;99.90;;;;;;2603572;54;20029;31
2023/11/03 07:44:59;;;;;;;6.40;3.08;;;12.00;99.90;;;;;;2621748;46;19943;31
2023/11/03 07:47:34;;;;;;;;;;;12.00;99.90;;;;;;2603650;54;20030;31
2023/11/03 07:50:18;;;;;;;4.38;2.70;;;12.00;99.90;;;;;;2621892;46;19985;31
2023/11/03 07:53:13;;;;;;;4.53;2.93;;;12.00;99.90;;;;;;2603125;54;20031;31
2023/11/03 07:55:50;;;;;;;4.68;3.60;;;12.00;99.90;;;;;;2603174;54;20873;31
2023/11/03 07:58:27;;;;;;;4.95;2.88;;;12.00;99.90;;;;;;2603460;54;20027;31
2023/11/03 08:01:05;;;;;;;4.18;2.70;;;12.00;99.90;;;;;;2603396;54;19961;31
2023/11/03 08:03:41;;;;;;;6.07;4.20;;;12.00;99.90;;;;;;2622163;46;20057;31
2023/11/03 08:06:17;;;;;;;7.70;4.15;;;12.00;99.90;;;;;;2701507;39;21521;31
2023/11/03 08:08:57;;;;;;;8.93;5.10;;;12.10;99.90;;;;;;2602889;54;20804;31
2023/11/03 08:11:34;;;;;;;7.60;5.40;;;12.10;99.90;;;;;;2603121;54;20305;31
2023/11/03 08:14:10;;;;;;;6.97;4.30;;;12.10;99.90;;;;;;2603174;54;20026;31
2023/11/03 08:16:48;;;;;;;7.28;3.78;;;12.10;99.90;;;;;;2603428;54;20027;31
2023/11/03 08:19:22;;;;;;;9.00;4.75;;;12.00;99.90;;;;;;2603148;54;20789;31
2023/11/03 08:21:57;;;;;;;5.90;4.03;;;12.00;99.90;;;;;;2602987;54;20234;31
2023/11/03 08:24:37;;;;;;;8.80;3.95;;;12.10;99.90;;;;;;2602794;54;21224;31
2023/11/03 08:27:14;;;;;;;8.07;4.37;;;12.00;99.90;;;;;;2603041;54;20876;31
2023/11/03 08:29:50;;;;;;;12.07;5.32;;;12.00;99.90;;;;;;2603180;54;20948;31
2023/11/03 08:32:27;;;;;;;8.98;4.80;;;12.00;99.90;;;;;;2603079;54;20920;31
2023/11/03 08:35:04;;;;;;;7.60;5.00;;;12.00;99.90;;;;;;2603017;54;20034;31
2023/11/03 08:37:40;;;;;;;7.70;5.20;;;12.00;99.90;;;;;;2602974;54;20056;31
2023/11/03 08:40:20;;;;;;;9.50;5.60;;;12.00;99.90;;;;;;2602859;54;20827;31
2023/11/03 08:42:54;;;;;;;6.75;4.50;;;12.00;99.90;;;;;;2608527;46;20936;31
2023/11/03 08:45:32;;;;;;;7.35;4.80;;;12.00;99.90;;;;;;2621310;46;20872;31
2023/11/03 08:48:09;;;;;;;8.57;4.87;;;12.00;99.90;;;;;;2621887;46;20891;31
2023/11/03 08:50:50;;;;;;;6.93;4.67;;;12.00;99.90;;;;;;2603088;54;20797;31
2023/11/03 08:53:26;;;;;;;8.60;5.18;;;12.00;99.90;;;;;;2603058;54;20242;31
2023/11/03 08:56:05;;;;;;;8.20;5.05;;;12.00;99.90;;;;;;2603188;54;20108;31
2023/11/03 08:58:42;;;;;;;7.60;4.83;;;12.00;99.90;;;;;;2621648;47;20026;31
2023/11/03 09:01:19;;;;;;;6.60;4.15;;;12.00;99.90;;;;;;2621521;47;20034;31
2023/11/03 09:03:55;;;;;;;5.82;4.38;;;12.00;99.90;;;;;;2603042;54;20019;31
2023/11/03 09:06:33;;;;;;;7.97;4.80;;;11.90;99.90;;;;;;2602913;54;20045;31
2023/11/03 09:09:09;;;;;;;5.50;3.90;;;12.00;99.90;;;;;;2603051;54;20023;31
2023/11/03 09:11:47;;;;;;;5.63;4.10;;;11.90;99.90;;;;;;2602850;54;20025;31
2023/11/03 09:14:25;;;;;;;5.70;3.83;;;11.90;99.90;;;;;;2621870;47;20730;31
2023/11/03 09:17:01;;;;;;;5.40;3.55;;;11.90;99.90;;;;;;2602883;54;20942;31
2023/11/03 09:19:38;;;;;;;7.10;3.50;;;11.90;99.90;;;;;;2602887;54;20933;31
2023/11/03 09:22:15;;;;;;;5.45;3.50;;;11.90;99.90;;;;;;2603838;54;20057;31
2023/11/03 09:25:05;;;;;;;8.93;3.83;;;11.90;99.90;;;;;;2603726;54;24069;31
2023/11/03 09:27:45;;;;;;;5.38;3.95;;;11.80;99.90;;;;;;2603990;54;20033;31
2023/11/03 09:30:22;;;;;;;8.43;4.97;;;11.90;99.90;;;;;;2622465;46;20845;31
2023/11/03 09:32:58;;;;;;;7.13;4.75;;;11.90;99.90;;;;;;2603788;54;20144;31
2023/11/03 09:35:35;;;;;;;7.03;4.75;;;11.90;99.90;;;;;;2603565;54;20923;31
2023/11/03 09:38:19;;;;;;;7.03;3.70;;;11.90;99.90;;;;;;2603885;54;20868;31
2023/11/03 09:40:54;;;;;;;6.40;3.30;;;11.90;99.90;;;;;;2603576;54;20992;31
2023/11/03 09:43:33;;;;;;;5.60;3.03;;;11.90;99.90;;;;;;2603732;54;20867;31
2023/11/03 09:46:09;;;;;;;3.75;2.65;;;11.90;99.90;;;;;;2622346;46;20124;31
2023/11/03 09:48:45;;;;;;;5.57;3.28;;;11.90;99.90;;;;;;2603657;54;20932;31
2023/11/03 09:51:25;;;;;;;6.00;4.10;;;11.90;99.90;;;;;;2622035;46;20042;31
2023/11/03 09:54:03;;;;;;;5.40;3.85;;;11.90;99.90;;;;;;2622534;46;20048;31
2023/11/03 09:56:39;;;;;;;7.40;4.00;;;11.90;99.90;;;;;;2603550;54;20046;31
2023/11/03 09:59:17;;;;;;;4.82;3.63;;;11.90;99.90;;;;;;2603630;54;20887;31
2023/11/03 10:01:53;;;;;;;7.07;3.93;;;11.90;99.90;;;;;;2603785;54;20042;31
2023/11/03 10:04:28;;;;;;;7.50;4.00;;;11.90;99.90;;;;;;2622161;46;19941;31
2023/11/03 10:07:05;;;;;;;5.90;3.45;;;11.90;99.90;;;;;;2603671;54;20830;31
2023/11/03 10:09:40;;;;;;;5.57;3.80;;;11.90;99.90;;;;;;2603390;54;20239;31
2023/11/03 10:12:17;;;;;;;6.65;3.80;;;11.90;99.90;;;;;;2622129;46;20116;31
2023/11/03 10:14:55;;;;;;;5.70;3.90;;;11.90;99.90;;;;;;2603344;54;20117;31
2023/11/03 10:17:32;;;;;;;6.67;3.80;;;11.90;99.90;;;;;;2603727;54;20026;31
2023/11/03 10:20:11;;;;;;;5.82;3.75;;;11.90;99.90;;;;;;2622293;46;20104;31
2023/11/03 10:22:48;;;;;;;4.97;3.03;;;11.90;99.90;;;;;;2603755;54;20026;31
2023/11/03 10:25:29;;;;;;;7.28;3.75;;;11.90;99.90;;;;;;2603438;54;20030;31
2023/11/03 10:28:05;;;;;;;7.85;3.78;;;11.80;99.90;;;;;;2621935;46;20049;31
2023/11/03 10:30:46;;;;;;;7.80;3.90;;;11.80;99.90;;;;;;2603673;54;20026;31
2023/11/03 10:33:21;;;;;;;5.07;3.60;;;11.80;99.90;;;;;;2622017;46;20023;31
2023/11/03 10:35:57;;;;;;;5.17;3.47;;;11.80;99.90;;;;;;2603372;54;20569;31
2023/11/03 10:38:32;;;;;;;5.80;3.63;;;11.80;99.90;;;;;;2621907;46;20030;31
2023/11/03 10:41:10;;;;;;;6.33;3.63;;;11.80;99.90;;;;;;2621992;46;20052;31
2023/11/03 10:43:52;;;;;;;8.77;3.15;;;11.80;99.90;;;;;;2603408;54;20026;31
2023/11/03 10:46:38;;;;;;;5.60;3.45;;;11.80;99.90;;;;;;2603639;54;20073;31
2023/11/03 10:49:18;;;;;;;8.18;4.00;;;11.80;99.90;;;;;;2622196;46;20085;31
2023/11/03 10:52:00;;;;;;;6.80;3.88;;;11.80;99.90;;;;;;2603496;54;20052;31
2023/11/03 10:54:41;;;;;;;6.72;4.20;;;11.70;99.90;;;;;;2603568;54;20026;31
2023/11/03 10:57:21;;;;;;;5.30;3.55;;;11.70;99.90;;;;;;2701764;39;21406;31
2023/11/03 11:00:09;;;;;;;7.17;3.80;;;11.70;99.90;;;;;;2603494;54;20026;31
2023/11/03 11:02:53;;;;;;;5.50;3.50;;;11.70;99.90;;;;;;2603499;54;20022;31
2023/11/03 11:05:32;;;;;;;6.07;3.05;;;11.80;99.90;;;;;;2603513;54;20030;31
2023/11/03 11:08:09;;;;;;;4.10;2.70;;;11.80;99.90;;;;;;2622285;46;20035;31
2023/11/03 11:10:45;;;;;;;5.85;3.30;;;11.70;99.90;;;;;;2621969;46;20026;31
2023/11/03 11:13:22;;;;;;;6.27;3.30;;;11.70;99.90;;;;;;2603431;54;20022;31
2023/11/03 11:16:09;;;;;;;4.05;3.03;;;11.70;99.90;;;;;;2621980;46;20929;31
2023/11/03 11:18:55;;;;;;;4.30;2.85;;;11.70;99.90;;;;;;2621612;46;20904;31
2023/11/03 11:21:32;;;;;;;7.05;3.60;;;11.80;99.90;;;;;;2621823;46;20037;31
2023/11/03 11:24:11;;;;;;;6.60;2.80;;;11.80;99.90;;;;;;2603315;54;20927;31
2023/11/03 11:26:45;;;;;;;7.55;3.40;;;11.80;99.90;;;;;;2603332;54;20030;31
2023/11/03 11:29:27;;;;;;;5.45;3.15;;;11.80;99.90;;;;;;2603387;54;20077;31
2023/11/03 11:32:11;;;;;;;7.07;3.43;;;11.80;99.90;;;;;;2603737;54;20032;31
2023/11/03 11:34:48;;;;;;;6.25;3.63;;;11.70;99.90;;;;;;2603317;54;20026;31
2023/11/03 11:37:28;;;;;;;7.82;4.03;;;11.70;99.90;;;;;;2603311;54;20104;31
2023/11/03 11:40:03;;;;;;;7.35;3.60;;;11.70;99.90;;;;;;2621843;46;20117;31
2023/11/03 11:42:42;;;;;;;9.37;4.73;;;11.70;99.90;;;;;;2621863;46;20831;31
2023/11/03 11:45:58;;;;;;;5.80;3.35;;;11.70;99.90;;;;;;2602989;54;20301;31
2023/11/03 11:52:20;;;;;;;7.45;3.90;;;11.70;99.90;;;;;;2603035;54;20085;31
2023/11/03 11:54:58;;;;;;;7.00;3.70;;;11.70;99.90;;;;;;2603324;54;20870;31
2023/11/03 11:57:40;;;;;;;5.75;3.33;;;11.70;99.90;;;;;;2603272;54;20037;31
2023/11/03 12:00:19;;;;;;;5.53;3.85;;;11.70;99.90;;;;;;2603257;54;20085;31
2023/11/03 12:02:56;;;;;;;8.05;4.90;;;11.70;99.90;;;;;;2602586;54;20906;31
2023/11/03 12:05:34;;;;;;;7.85;5.03;;;11.70;99.90;;;;;;2603152;54;20885;31
2023/11/03 12:08:13;;;;;;;7.68;4.30;;;11.70;99.90;;;;;;2621392;46;20937;31
2023/11/03 12:10:54;;;;;;;12.00;4.60;;;11.60;99.90;;;;;;2621903;46;20553;31
2023/11/03 12:13:33;;;;;;;10.27;4.10;;;11.60;99.90;;;;;;2603148;54;20030;31
2023/11/03 12:16:09;;;;;;;9.90;3.90;;;11.60;99.90;;;;;;2603392;54;20027;31
2023/11/03 12:18:45;;;;;;;8.40;4.07;;;11.60;99.90;;;;;;2719971;39;20604;31
2023/11/03 12:21:23;;;;;;;7.95;3.88;;;11.50;99.90;;;;;;2602951;54;20098;31
2023/11/03 12:24:04;;;;;;;8.20;4.27;;;11.60;99.90;;;;;;2621893;46;20838;31
2023/11/03 12:26:41;;;;;;;11.90;5.55;;;11.50;99.90;;;;;;2621613;46;20029;31
2023/11/03 12:29:30;;;;;;;11.80;4.90;;;11.50;99.90;;;;;;2603021;54;20932;31
2023/11/03 12:32:05;;;;;;;8.82;4.03;;;11.50;99.90;;;;;;2603072;54;20937;31
2023/11/03 12:34:40;;;;;;;8.45;3.70;;;11.50;99.90;;;;;;2603078;54;20958;31
2023/11/03 12:37:16;;;;;;;9.52;4.53;;;11.50;99.90;;;;;;2772906;31;20528;31
2023/11/03 12:39:52;;;;;;;12.30;4.50;;;11.50;99.90;;;;;;2603265;54;20027;31
2023/11/03 12:42:32;;;;;;;8.13;3.88;;;11.40;99.90;;;;;;2621884;46;20033;31
2023/11/03 12:45:16;;;;;;;6.70;3.80;;;11.40;99.90;;;;;;2603060;54;20760;31
2023/11/03 12:47:53;;;;;;;7.00;3.90;;;11.40;99.90;;;;;;2603233;54;20022;31
2023/11/03 12:50:29;;;;;;;7.65;4.45;;;11.40;99.90;;;;;;2603102;54;20797;31
2023/11/03 12:53:07;;;;;;;7.65;3.65;;;11.30;99.90;;;;;;2621522;46;20557;31
2023/11/03 12:55:45;;;;;;;5.45;2.70;;;11.30;99.90;;;;;;2603185;54;20611;31
2023/11/03 12:58:24;;;;;;;6.43;2.78;;;11.20;99.90;;;;;;2621967;46;20038;31
2023/11/03 13:01:04;;;;;;;4.95;2.85;;;11.20;99.90;;;;;;2603763;54;20053;31
2023/11/03 13:03:40;;;;;;;6.55;3.97;;;11.20;99.90;;;;;;2603679;54;20836;31
2023/11/03 13:06:15;;;;;;;4.80;2.75;;;11.20;99.90;;;;;;2603757;54;20038;31
2023/11/03 13:08:52;;;;;;;6.55;3.47;;;11.10;99.90;;;;;;2603712;54;20034;31
2023/11/03 13:11:28;;;;;;;5.43;2.90;;;11.10;99.90;;;;;;2622140;46;20034;31
2023/11/03 13:14:18;;;;;;;6.05;3.15;;;11.00;99.90;;;;;;2603677;54;20668;31
2023/11/03 13:16:54;;;;;;;10.05;4.18;;;11.00;99.90;;;;;;2603440;54;20102;31
2023/11/03 13:19:32;;;;;;;6.10;3.63;;;10.90;99.90;;;;;;2622232;46;20030;31
2023/11/03 13:22:10;;;;;;;5.07;2.90;;;10.90;99.90;;;;;;2603711;54;20096;31
2023/11/03 13:24:48;;;;;;;5.80;2.60;;;10.90;99.90;;;;;;2702316;39;20501;31
2023/11/03 13:27:24;;;;;;;8.15;3.03;;;10.90;99.90;;;;;;2603773;54;20216;31
2023/11/03 13:30:03;;;;;;;;;;;10.80;99.90;;;;;;2603190;54;20932;31
2023/11/03 13:32:41;;;;;;;7.00;3.35;;;10.80;99.90;;;;;;2621967;46;19934;31
2023/11/03 13:35:20;;;;;;;8.32;4.38;;;10.80;99.90;;;;;;2603672;54;20584;31
2023/11/03 13:37:59;;;;;;;7.63;4.35;;;10.80;99.90;;;;;;2603843;54;20026;31
2023/11/03 13:40:37;;;;;;;6.03;3.95;;;10.80;99.90;;;;;;2603861;54;20081;31
2023/11/03 13:43:14;;;;;;;9.90;3.90;;;10.70;99.90;;;;;;2603492;54;20717;31
2023/11/03 13:45:59;;;;;;;7.60;4.20;;;10.70;99.90;;;;;;2603751;54;20056;31
2023/11/03 13:48:35;;;;;;;6.22;3.33;;;10.70;99.90;;;;;;2702185;39;20466;31
2023/11/03 13:51:17;;;;;;;4.53;2.88;;;10.70;99.90;;;;;;2603732;54;20030;31
2023/11/03 13:53:52;;;;;;;5.47;3.20;;;10.60;99.90;;;;;;2603389;54;19997;31
2023/11/03 13:56:29;;;;;;;4.50;2.95;;;10.60;99.90;;;;;;2603626;54;19941;31
2023/11/03 13:59:07;;;;;;;5.00;2.65;;;10.60;99.90;;;;;;2603782;54;20806;31